sensor_id;sensor_type;location;lat;lon;timestamp;temperature;humidity
24800;DHT22;12897;50.812;4.430;2023-01-05T00:00:11;11.30;99.90
24800;DHT22;12897;50.812;4.430;2023-01-05T00:02:39;11.40;99.90
24800;DHT22;12897;50.812;4.430;2023-01-05T00:05:08;11.30;99.90
24800;DHT22;12897;50.812;4.430;2023-01-05T00:07:35;11.30;99.90
24800;DHT22;12897;50.812;4.430;2023-01-05T00:10:25;11.30;99.90
24800;DHT22;12897;50.812;4.430;2023-01-05T00:13:12;11.30;99.90
24800;DHT22;12897;50.812;4.430;2023-01-05T00:15:59;11.40;99.90
24800;DHT22;12897;50.812;4.430;2023-01-05T00:18:45;11.40;99.90
24800;DHT22;12897;50.812;4.430;2023-01-05T00:21:32;11.30;99.90
24800;DHT22;12897;50.812;4.430;2023-01-05T00:24:19;11.30;99.90
24800;DHT22;12897;50.812;4.430;2023-01-05T00:26:46;11.30;99.90
24800;DHT22;12897;50.812;4.430;2023-01-05T00:29:14;11.30;99.90
24800;DHT22;12897;50.812;4.430;2023-01-05T00:31:41;11.30;99.90
24800;DHT22;12897;50.812;4.430;2023-01-05T00:34:09;11.30;99.90
24800;DHT22;12897;50.812;4.430;2023-01-05T00:36:38;11.40;99.90
24800;DHT22;12897;50.812;4.430;2023-01-05T00:39:06;11.40;99.90
24800;DHT22;12897;50.812;4.430;2023-01-05T00:41:34;11.40;99.90
24800;DHT22;12897;50.812;4.430;2023-01-05T00:44:01;11.40;99.90
24800;DHT22;12897;50.812;4.430;2023-01-05T00:46:30;11.40;99.90
24800;DHT22;12897;50.812;4.430;2023-01-05T00:48:58;11.40;99.90
24800;DHT22;12897;50.812;4.430;2023-01-05T00:51:44;11.30;99.90
24800;DHT22;12897;50.812;4.430;2023-01-05T00:54:12;11.30;99.90
24800;DHT22;12897;50.812;4.430;2023-01-05T00:56:39;11.30;99.90
24800;DHT22;12897;50.812;4.430;2023-01-05T00:59:08;11.20;99.90
24800;DHT22;12897;50.812;4.430;2023-01-05T01:01:35;11.30;99.90
24800;DHT22;12897;50.812;4.430;2023-01-05T01:04:03;11.30;99.90
24800;DHT22;12897;50.812;4.430;2023-01-05T01:06:31;11.30;99.90
24800;DHT22;12897;50.812;4.430;2023-01-05T01:08:58;11.20;99.90
24800;DHT22;12897;50.812;4.430;2023-01-05T01:11:26;11.20;99.90
24800;DHT22;12897;50.812;4.430;2023-01-05T01:13:53;11.30;99.90
24800;DHT22;12897;50.812;4.430;2023-01-05T01:16:21;11.30;99.90
24800;DHT22;12897;50.812;4.430;2023-01-05T01:18:49;11.20;99.90
24800;DHT22;12897;50.812;4.430;2023-01-05T01:21:16;11.20;99.90
24800;DHT22;12897;50.812;4.430;2023-01-05T01:23:44;11.30;99.90
24800;DHT22;12897;50.812;4.430;2023-01-05T01:26:12;11.20;99.90
24800;DHT22;12897;50.812;4.430;2023-01-05T01:28:40;11.20;99.90
24800;DHT22;12897;50.812;4.430;2023-01-05T01:31:08;11.20;99.90
24800;DHT22;12897;50.812;4.430;2023-01-05T01:33:37;11.20;99.90
24800;DHT22;12897;50.812;4.430;2023-01-05T01:38:55;11.10;99.90
24800;DHT22;12897;50.812;4.430;2023-01-05T01:41:22;11.10;99.90
24800;DHT22;12897;50.812;4.430;2023-01-05T01:43:55;11.20;99.90
24800;DHT22;12897;50.812;4.430;2023-01-05T01:46:24;11.30;99.90
24800;DHT22;12897;50.812;4.430;2023-01-05T01:49:06;11.40;99.90
24800;DHT22;12897;50.812;4.430;2023-01-05T01:51:37;11.40;99.90
24800;DHT22;12897;50.812;4.430;2023-01-05T01:54:10;11.40;99.90
24800;DHT22;12897;50.812;4.430;2023-01-05T01:56:43;11.40;99.90
24800;DHT22;12897;50.812;4.430;2023-01-05T01:59:10;11.40;99.90
24800;DHT22;12897;50.812;4.430;2023-01-05T02:01:39;11.40;99.90
24800;DHT22;12897;50.812;4.430;2023-01-05T02:04:07;11.30;99.90
24800;DHT22;12897;50.812;4.430;2023-01-05T02:06:36;11.30;99.90
24800;DHT22;12897;50.812;4.430;2023-01-05T02:09:05;11.40;99.90
24800;DHT22;12897;50.812;4.430;2023-01-05T02:28:55;11.30;99.90
24800;DHT22;12897;50.812;4.430;2023-01-05T02:36:25;11.30;99.90
24800;DHT22;12897;50.812;4.430;2023-01-05T02:39:13;11.30;99.90
24800;DHT22;12897;50.812;4.430;2023-01-05T02:41:52;11.40;99.90
24800;DHT22;12897;50.812;4.430;2023-01-05T02:44:20;11.50;99.90
24800;DHT22;12897;50.812;4.430;2023-01-05T02:52:26;11.40;99.90
24800;DHT22;12897;50.812;4.430;2023-01-05T02:54:58;11.40;99.90
24800;DHT22;12897;50.812;4.430;2023-01-05T02:57:32;11.40;99.90
24800;DHT22;12897;50.812;4.430;2023-01-05T03:00:23;11.30;99.90
24800;DHT22;12897;50.812;4.430;2023-01-05T03:02:53;11.30;99.90
24800;DHT22;12897;50.812;4.430;2023-01-05T03:05:28;11.20;99.90
24800;DHT22;12897;50.812;4.430;2023-01-05T03:07:53;11.30;99.90
24800;DHT22;12897;50.812;4.430;2023-01-05T03:10:23;11.30;99.90
24800;DHT22;12897;50.812;4.430;2023-01-05T03:13:10;11.30;99.90
24800;DHT22;12897;50.812;4.430;2023-01-05T03:15:55;11.40;99.90
24800;DHT22;12897;50.812;4.430;2023-01-05T03:18:25;11.40;99.90
24800;DHT22;12897;50.812;4.430;2023-01-05T03:20:54;11.30;99.90
24800;DHT22;12897;50.812;4.430;2023-01-05T03:23:22;11.40;99.90
24800;DHT22;12897;50.812;4.430;2023-01-05T03:26:10;11.40;99.90
24800;DHT22;12897;50.812;4.430;2023-01-05T03:28:58;11.40;99.90
24800;DHT22;12897;50.812;4.430;2023-01-05T03:31:50;11.40;99.90
24800;DHT22;12897;50.812;4.430;2023-01-05T03:34:55;11.40;99.90
24800;DHT22;12897;50.812;4.430;2023-01-05T03:37:53;11.40;99.90
24800;DHT22;12897;50.812;4.430;2023-01-05T03:40:26;11.50;99.90
24800;DHT22;12897;50.812;4.430;2023-01-05T03:42:55;11.50;99.90
24800;DHT22;12897;50.812;4.430;2023-01-05T03:45:24;11.50;99.90
24800;DHT22;12897;50.812;4.430;2023-01-05T03:47:52;11.60;99.90
24800;DHT22;12897;50.812;4.430;2023-01-05T03:50:21;11.60;99.90
24800;DHT22;12897;50.812;4.430;2023-01-05T03:52:49;11.60;99.90
24800;DHT22;12897;50.812;4.430;2023-01-05T03:55:16;11.40;99.90
24800;DHT22;12897;50.812;4.430;2023-01-05T03:57:49;11.40;99.90
24800;DHT22;12897;50.812;4.430;2023-01-05T04:00:16;11.50;99.90
24800;DHT22;12897;50.812;4.430;2023-01-05T04:02:44;11.50;99.90
24800;DHT22;12897;50.812;4.430;2023-01-05T04:05:12;11.50;99.90
24800;DHT22;12897;50.812;4.430;2023-01-05T04:07:40;11.60;99.90
24800;DHT22;12897;50.812;4.430;2023-01-05T04:10:07;11.60;99.90
24800;DHT22;12897;50.812;4.430;2023-01-05T04:12:35;11.50;99.90
24800;DHT22;12897;50.812;4.430;2023-01-05T04:15:03;11.50;99.90
24800;DHT22;12897;50.812;4.430;2023-01-05T04:17:31;11.50;99.90
24800;DHT22;12897;50.812;4.430;2023-01-05T04:20:00;11.60;99.90
24800;DHT22;12897;50.812;4.430;2023-01-05T04:22:27;11.60;99.90
24800;DHT22;12897;50.812;4.430;2023-01-05T04:24:55;11.50;99.90
24800;DHT22;12897;50.812;4.430;2023-01-05T04:27:22;11.50;99.90
24800;DHT22;12897;50.812;4.430;2023-01-05T04:29:50;11.50;99.90
24800;DHT22;12897;50.812;4.430;2023-01-05T04:32:17;11.60;99.90
24800;DHT22;12897;50.812;4.430;2023-01-05T04:34:45;11.50;99.90
24800;DHT22;12897;50.812;4.430;2023-01-05T04:37:12;11.50;99.90
24800;DHT22;12897;50.812;4.430;2023-01-05T04:39:40;11.60;99.90
24800;DHT22;12897;50.812;4.430;2023-01-05T04:42:08;11.60;99.90
24800;DHT22;12897;50.812;4.430;2023-01-05T04:44:35;11.60;99.90
24800;DHT22;12897;50.812;4.430;2023-01-05T04:47:03;11.60;99.90
24800;DHT22;12897;50.812;4.430;2023-01-05T04:49:30;11.60;99.90
24800;DHT22;12897;50.812;4.430;2023-01-05T04:51:58;11.50;99.90
24800;DHT22;12897;50.812;4.430;2023-01-05T04:54:25;11.50;99.90
24800;DHT22;12897;50.812;4.430;2023-01-05T04:56:53;11.50;99.90
24800;DHT22;12897;50.812;4.430;2023-01-05T04:59:20;11.50;99.90
24800;DHT22;12897;50.812;4.430;2023-01-05T05:01:48;11.50;99.90
24800;DHT22;12897;50.812;4.430;2023-01-05T05:04:15;11.40;99.90
24800;DHT22;12897;50.812;4.430;2023-01-05T05:06:43;11.50;99.90
24800;DHT22;12897;50.812;4.430;2023-01-05T05:09:11;11.40;99.90
24800;DHT22;12897;50.812;4.430;2023-01-05T05:11:38;11.40;99.90
24800;DHT22;12897;50.812;4.430;2023-01-05T05:14:06;11.30;99.90
24800;DHT22;12897;50.812;4.430;2023-01-05T05:16:34;11.30;99.90
24800;DHT22;12897;50.812;4.430;2023-01-05T05:19:02;11.30;99.90
24800;DHT22;12897;50.812;4.430;2023-01-05T05:21:30;11.20;99.90
24800;DHT22;12897;50.812;4.430;2023-01-05T05:23:58;11.30;99.90
24800;DHT22;12897;50.812;4.430;2023-01-05T05:26:25;11.30;99.90
24800;DHT22;12897;50.812;4.430;2023-01-05T05:28:53;11.20;99.90
24800;DHT22;12897;50.812;4.430;2023-01-05T05:31:21;11.30;99.90
24800;DHT22;12897;50.812;4.430;2023-01-05T05:33:48;11.30;99.90
24800;DHT22;12897;50.812;4.430;2023-01-05T05:36:16;11.20;99.90
24800;DHT22;12897;50.812;4.430;2023-01-05T05:38:44;11.10;99.90
24800;DHT22;12897;50.812;4.430;2023-01-05T05:41:11;11.10;99.90
24800;DHT22;12897;50.812;4.430;2023-01-05T05:43:39;11.10;99.90
24800;DHT22;12897;50.812;4.430;2023-01-05T05:46:06;11.10;99.90
24800;DHT22;12897;50.812;4.430;2023-01-05T05:48:34;11.20;99.90
24800;DHT22;12897;50.812;4.430;2023-01-05T05:51:02;11.30;99.90
24800;DHT22;12897;50.812;4.430;2023-01-05T05:53:29;11.30;99.90
24800;DHT22;12897;50.812;4.430;2023-01-05T05:55:57;11.40;99.90
24800;DHT22;12897;50.812;4.430;2023-01-05T05:58:24;11.40;99.90
24800;DHT22;12897;50.812;4.430;2023-01-05T06:00:56;11.30;99.90
24800;DHT22;12897;50.812;4.430;2023-01-05T06:03:22;11.30;99.90
24800;DHT22;12897;50.812;4.430;2023-01-05T06:05:50;11.40;99.90
24800;DHT22;12897;50.812;4.430;2023-01-05T06:08:17;11.30;99.90
24800;DHT22;12897;50.812;4.430;2023-01-05T06:10:45;11.30;99.90
24800;DHT22;12897;50.812;4.430;2023-01-05T06:13:14;11.30;99.90
24800;DHT22;12897;50.812;4.430;2023-01-05T06:15:42;11.30;99.90
24800;DHT22;12897;50.812;4.430;2023-01-05T06:18:10;11.30;99.90
24800;DHT22;12897;50.812;4.430;2023-01-05T06:20:37;11.30;99.90
24800;DHT22;12897;50.812;4.430;2023-01-05T06:23:05;11.20;99.90
24800;DHT22;12897;50.812;4.430;2023-01-05T06:25:33;11.30;99.90
24800;DHT22;12897;50.812;4.430;2023-01-05T06:28:01;11.30;99.90
24800;DHT22;12897;50.812;4.430;2023-01-05T06:30:29;11.30;99.90
24800;DHT22;12897;50.812;4.430;2023-01-05T06:32:56;11.30;99.90
24800;DHT22;12897;50.812;4.430;2023-01-05T06:35:24;11.20;99.90
24800;DHT22;12897;50.812;4.430;2023-01-05T06:37:51;11.30;99.90
24800;DHT22;12897;50.812;4.430;2023-01-05T06:40:19;11.30;99.90
24800;DHT22;12897;50.812;4.430;2023-01-05T06:42:46;11.20;99.90
24800;DHT22;12897;50.812;4.430;2023-01-05T06:45:15;11.20;99.90
24800;DHT22;12897;50.812;4.430;2023-01-05T06:47:43;11.20;99.90
24800;DHT22;12897;50.812;4.430;2023-01-05T06:50:11;11.20;99.90
24800;DHT22;12897;50.812;4.430;2023-01-05T06:52:38;11.20;99.90
24800;DHT22;12897;50.812;4.430;2023-01-05T06:55:09;11.10;99.90
24800;DHT22;12897;50.812;4.430;2023-01-05T06:57:37;11.20;99.90
24800;DHT22;12897;50.812;4.430;2023-01-05T07:00:07;11.20;99.90
24800;DHT22;12897;50.812;4.430;2023-01-05T07:02:34;11.30;99.90
24800;DHT22;12897;50.812;4.430;2023-01-05T07:05:03;11.30;99.90
24800;DHT22;12897;50.812;4.430;2023-01-05T07:07:31;11.30;99.90
24800;DHT22;12897;50.812;4.430;2023-01-05T07:09:59;11.30;99.90
24800;DHT22;12897;50.812;4.430;2023-01-05T07:12:26;11.20;99.90
24800;DHT22;12897;50.812;4.430;2023-01-05T07:14:54;11.10;99.90
24800;DHT22;12897;50.812;4.430;2023-01-05T07:17:22;11.20;99.90
24800;DHT22;12897;50.812;4.430;2023-01-05T07:19:49;11.20;99.90
24800;DHT22;12897;50.812;4.430;2023-01-05T07:22:17;11.30;99.90
24800;DHT22;12897;50.812;4.430;2023-01-05T07:24:44;11.40;99.90
24800;DHT22;12897;50.812;4.430;2023-01-05T07:27:12;11.30;99.90
24800;DHT22;12897;50.812;4.430;2023-01-05T07:29:39;11.20;99.90
24800;DHT22;12897;50.812;4.430;2023-01-05T07:32:07;11.30;99.90
24800;DHT22;12897;50.812;4.430;2023-01-05T07:34:35;11.40;99.90
24800;DHT22;12897;50.812;4.430;2023-01-05T07:37:02;11.50;99.90
24800;DHT22;12897;50.812;4.430;2023-01-05T07:39:30;11.50;99.90
24800;DHT22;12897;50.812;4.430;2023-01-05T07:41:58;11.40;99.90
24800;DHT22;12897;50.812;4.430;2023-01-05T07:44:25;11.40;99.90
24800;DHT22;12897;50.812;4.430;2023-01-05T07:46:53;11.20;99.90
24800;DHT22;12897;50.812;4.430;2023-01-05T07:49:20;11.20;99.90
24800;DHT22;12897;50.812;4.430;2023-01-05T07:51:48;11.20;99.90
24800;DHT22;12897;50.812;4.430;2023-01-05T07:54:15;11.30;99.90
24800;DHT22;12897;50.812;4.430;2023-01-05T07:56:43;11.10;99.90
24800;DHT22;12897;50.812;4.430;2023-01-05T07:59:11;11.20;99.90
24800;DHT22;12897;50.812;4.430;2023-01-05T08:01:40;11.20;99.90
24800;DHT22;12897;50.812;4.430;2023-01-05T08:04:08;11.30;99.90
24800;DHT22;12897;50.812;4.430;2023-01-05T08:06:36;11.30;99.90
24800;DHT22;12897;50.812;4.430;2023-01-05T08:09:05;11.20;99.90
24800;DHT22;12897;50.812;4.430;2023-01-05T08:11:50;11.30;99.90
24800;DHT22;12897;50.812;4.430;2023-01-05T08:14:18;11.30;99.90
24800;DHT22;12897;50.812;4.430;2023-01-05T08:16:46;11.30;99.90
24800;DHT22;12897;50.812;4.430;2023-01-05T08:19:13;11.30;99.90
24800;DHT22;12897;50.812;4.430;2023-01-05T08:21:41;11.20;99.90
24800;DHT22;12897;50.812;4.430;2023-01-05T08:24:08;11.20;99.90
24800;DHT22;12897;50.812;4.430;2023-01-05T08:26:36;11.30;99.90
24800;DHT22;12897;50.812;4.430;2023-01-05T08:29:03;11.40;99.90
24800;DHT22;12897;50.812;4.430;2023-01-05T08:31:31;11.40;99.90
24800;DHT22;12897;50.812;4.430;2023-01-05T08:34:01;11.40;99.90
24800;DHT22;12897;50.812;4.430;2023-01-05T08:36:29;11.30;99.90
24800;DHT22;12897;50.812;4.430;2023-01-05T08:38:57;11.30;99.90
24800;DHT22;12897;50.812;4.430;2023-01-05T08:41:29;11.40;99.90
24800;DHT22;12897;50.812;4.430;2023-01-05T08:43:58;11.50;99.90
24800;DHT22;12897;50.812;4.430;2023-01-05T08:46:29;11.40;99.90
24800;DHT22;12897;50.812;4.430;2023-01-05T08:49:00;11.40;99.90
24800;DHT22;12897;50.812;4.430;2023-01-05T08:51:28;11.40;99.90
24800;DHT22;12897;50.812;4.430;2023-01-05T08:53:55;11.40;99.90
24800;DHT22;12897;50.812;4.430;2023-01-05T08:56:24;11.40;99.90
24800;DHT22;12897;50.812;4.430;2023-01-05T08:58:53;11.50;99.90
24800;DHT22;12897;50.812;4.430;2023-01-05T09:01:26;11.30;99.90
24800;DHT22;12897;50.812;4.430;2023-01-05T09:03:55;11.30;99.90
24800;DHT22;12897;50.812;4.430;2023-01-05T09:06:22;11.30;99.90
24800;DHT22;12897;50.812;4.430;2023-01-05T09:08:51;11.40;99.90
24800;DHT22;12897;50.812;4.430;2023-01-05T09:11:23;11.40;99.90
24800;DHT22;12897;50.812;4.430;2023-01-05T09:13:54;11.40;99.90
24800;DHT22;12897;50.812;4.430;2023-01-05T09:16:24;11.50;99.90
24800;DHT22;12897;50.812;4.430;2023-01-05T09:18:52;11.40;99.90
24800;DHT22;12897;50.812;4.430;2023-01-05T09:21:20;11.40;99.90
24800;DHT22;12897;50.812;4.430;2023-01-05T09:23:47;11.40;99.90
24800;DHT22;12897;50.812;4.430;2023-01-05T09:26:15;11.50;99.90
24800;DHT22;12897;50.812;4.430;2023-01-05T09:28:43;11.50;99.90
24800;DHT22;12897;50.812;4.430;2023-01-05T09:31:19;11.50;99.90
24800;DHT22;12897;50.812;4.430;2023-01-05T09:33:47;11.60;99.90
24800;DHT22;12897;50.812;4.430;2023-01-05T09:36:16;11.70;99.90
24800;DHT22;12897;50.812;4.430;2023-01-05T09:38:54;11.70;99.90
24800;DHT22;12897;50.812;4.430;2023-01-05T09:43:57;11.70;99.90
24800;DHT22;12897;50.812;4.430;2023-01-05T09:46:37;11.70;99.90
24800;DHT22;12897;50.812;4.430;2023-01-05T09:49:10;11.90;99.90
24800;DHT22;12897;50.812;4.430;2023-01-05T09:51:35;11.70;99.90
24800;DHT22;12897;50.812;4.430;2023-01-05T09:54:03;11.70;99.90
24800;DHT22;12897;50.812;4.430;2023-01-05T09:56:50;11.80;99.90
24800;DHT22;12897;50.812;4.430;2023-01-05T10:01:50;11.80;99.90
24800;DHT22;12897;50.812;4.430;2023-01-05T10:04:23;12.00;99.90
24800;DHT22;12897;50.812;4.430;2023-01-05T10:06:54;12.10;99.90
24800;DHT22;12897;50.812;4.430;2023-01-05T10:09:23;12.10;99.90
24800;DHT22;12897;50.812;4.430;2023-01-05T10:11:58;12.20;99.90
24800;DHT22;12897;50.812;4.430;2023-01-05T10:14:46;12.10;99.90
24800;DHT22;12897;50.812;4.430;2023-01-05T10:17:19;12.20;99.90
24800;DHT22;12897;50.812;4.430;2023-01-05T10:19:49;12.20;99.90
24800;DHT22;12897;50.812;4.430;2023-01-05T10:27:59;12.10;99.90
24800;DHT22;12897;50.812;4.430;2023-01-05T10:30:31;12.20;99.90
24800;DHT22;12897;50.812;4.430;2023-01-05T10:32:59;12.20;99.90
24800;DHT22;12897;50.812;4.430;2023-01-05T10:35:49;12.20;99.90
24800;DHT22;12897;50.812;4.430;2023-01-05T10:41:09;12.10;99.90
24800;DHT22;12897;50.812;4.430;2023-01-05T10:44:02;12.20;99.90
24800;DHT22;12897;50.812;4.430;2023-01-05T10:46:24;12.00;99.90
24800;DHT22;12897;50.812;4.430;2023-01-05T10:48:52;12.00;99.90
24800;DHT22;12897;50.812;4.430;2023-01-05T10:51:21;12.00;99.90
24800;DHT22;12897;50.812;4.430;2023-01-05T10:53:49;12.00;99.90
24800;DHT22;12897;50.812;4.430;2023-01-05T10:56:24;12.10;99.90
24800;DHT22;12897;50.812;4.430;2023-01-05T10:59:08;12.10;99.90
24800;DHT22;12897;50.812;4.430;2023-01-05T11:01:37;12.30;99.90
24800;DHT22;12897;50.812;4.430;2023-01-05T11:04:11;12.30;99.90
24800;DHT22;12897;50.812;4.430;2023-01-05T11:06:37;12.20;99.90
24800;DHT22;12897;50.812;4.430;2023-01-05T11:09:16;12.30;99.90
24800;DHT22;12897;50.812;4.430;2023-01-05T11:11:59;12.30;99.90
24800;DHT22;12897;50.812;4.430;2023-01-05T11:14:29;12.30;99.90
24800;DHT22;12897;50.812;4.430;2023-01-05T11:17:04;12.30;99.90
24800;DHT22;12897;50.812;4.430;2023-01-05T11:19:34;12.40;99.90
24800;DHT22;12897;50.812;4.430;2023-01-05T11:22:40;12.60;99.90
24800;DHT22;12897;50.812;4.430;2023-01-05T11:24:41;12.70;99.90
24800;DHT22;12897;50.812;4.430;2023-01-05T11:27:23;12.60;99.90
24800;DHT22;12897;50.812;4.430;2023-01-05T11:32:46;12.40;99.90
24800;DHT22;12897;50.812;4.430;2023-01-05T11:35:35;12.40;99.90
24800;DHT22;12897;50.812;4.430;2023-01-05T11:38:03;12.40;99.90
24800;DHT22;12897;50.812;4.430;2023-01-05T11:40:33;12.60;99.90
24800;DHT22;12897;50.812;4.430;2023-01-05T11:43:08;12.60;99.90
24800;DHT22;12897;50.812;4.430;2023-01-05T11:45:40;12.60;99.90
24800;DHT22;12897;50.812;4.430;2023-01-05T11:48:05;12.60;99.90
24800;DHT22;12897;50.812;4.430;2023-01-05T11:50:52;12.80;99.90
24800;DHT22;12897;50.812;4.430;2023-01-05T11:58:47;12.60;99.90
24800;DHT22;12897;50.812;4.430;2023-01-05T12:01:49;12.60;99.90
24800;DHT22;12897;50.812;4.430;2023-01-05T12:07:10;12.70;99.90
24800;DHT22;12897;50.812;4.430;2023-01-05T12:09:40;12.60;99.90
24800;DHT22;12897;50.812;4.430;2023-01-05T12:15:29;12.70;99.90
24800;DHT22;12897;50.812;4.430;2023-01-05T12:21:08;12.90;99.90
24800;DHT22;12897;50.812;4.430;2023-01-05T12:29:37;13.20;99.90
24800;DHT22;12897;50.812;4.430;2023-01-05T12:40:56;13.00;99.90
24800;DHT22;12897;50.812;4.430;2023-01-05T12:49:34;13.00;99.90
24800;DHT22;12897;50.812;4.430;2023-01-05T12:52:22;13.00;99.90
24800;DHT22;12897;50.812;4.430;2023-01-05T12:54:52;13.00;99.90
24800;DHT22;12897;50.812;4.430;2023-01-05T12:57:25;13.00;99.90
24800;DHT22;12897;50.812;4.430;2023-01-05T12:59:58;13.00;99.90
24800;DHT22;12897;50.812;4.430;2023-01-05T13:02:31;13.00;99.90
24800;DHT22;12897;50.812;4.430;2023-01-05T13:05:09;13.10;99.90
24800;DHT22;12897;50.812;4.430;2023-01-05T13:10:20;13.30;99.90
24800;DHT22;12897;50.812;4.430;2023-01-05T13:12:52;13.20;99.90
24800;DHT22;12897;50.812;4.430;2023-01-05T13:15:32;13.20;99.90
24800;DHT22;12897;50.812;4.430;2023-01-05T13:18:00;13.30;99.90
24800;DHT22;12897;50.812;4.430;2023-01-05T13:20:51;13.20;99.90
24800;DHT22;12897;50.812;4.430;2023-01-05T13:23:22;13.30;99.90
24800;DHT22;12897;50.812;4.430;2023-01-05T13:25:54;13.30;99.90
24800;DHT22;12897;50.812;4.430;2023-01-05T13:28:21;13.10;99.90
24800;DHT22;12897;50.812;4.430;2023-01-05T13:41:42;13.20;99.90
24800;DHT22;12897;50.812;4.430;2023-01-05T13:47:01;13.00;99.90
24800;DHT22;12897;50.812;4.430;2023-01-05T13:49:35;13.00;99.90
24800;DHT22;12897;50.812;4.430;2023-01-05T13:52:37;12.90;99.90
24800;DHT22;12897;50.812;4.430;2023-01-05T13:55:05;12.80;99.90
24800;DHT22;12897;50.812;4.430;2023-01-05T13:57:40;12.90;99.90
24800;DHT22;12897;50.812;4.430;2023-01-05T14:02:57;12.90;99.90
24800;DHT22;12897;50.812;4.430;2023-01-05T14:05:32;12.90;99.90
24800;DHT22;12897;50.812;4.430;2023-01-05T14:08:02;12.90;99.90
24800;DHT22;12897;50.812;4.430;2023-01-05T14:10:32;13.00;99.90
24800;DHT22;12897;50.812;4.430;2023-01-05T14:13:00;13.00;99.90
24800;DHT22;12897;50.812;4.430;2023-01-05T14:15:40;13.10;99.90
24800;DHT22;12897;50.812;4.430;2023-01-05T14:18:10;13.20;99.90
24800;DHT22;12897;50.812;4.430;2023-01-05T14:20:46;13.00;99.90
24800;DHT22;12897;50.812;4.430;2023-01-05T14:25:56;13.00;99.90
24800;DHT22;12897;50.812;4.430;2023-01-05T14:36:43;12.90;99.90
24800;DHT22;12897;50.812;4.430;2023-01-05T14:44:59;12.90;99.90
24800;DHT22;12897;50.812;4.430;2023-01-05T14:47:44;12.80;99.90
24800;DHT22;12897;50.812;4.430;2023-01-05T14:50:24;12.70;99.90
24800;DHT22;12897;50.812;4.430;2023-01-05T14:53:04;12.80;99.90
24800;DHT22;12897;50.812;4.430;2023-01-05T14:55:39;12.90;99.90
24800;DHT22;12897;50.812;4.430;2023-01-05T14:58:12;13.10;99.90
24800;DHT22;12897;50.812;4.430;2023-01-05T15:03:37;12.90;99.90
24800;DHT22;12897;50.812;4.430;2023-01-05T15:06:54;13.00;99.90
24800;DHT22;12897;50.812;4.430;2023-01-05T15:09:24;13.10;99.90
24800;DHT22;12897;50.812;4.430;2023-01-05T15:14:59;13.10;99.90
24800;DHT22;12897;50.812;4.430;2023-01-05T15:17:30;13.00;99.90
24800;DHT22;12897;50.812;4.430;2023-01-05T15:31:18;13.10;99.90
24800;DHT22;12897;50.812;4.430;2023-01-05T15:33:56;13.00;99.90
24800;DHT22;12897;50.812;4.430;2023-01-05T15:36:27;13.00;99.90
24800;DHT22;12897;50.812;4.430;2023-01-05T15:38:55;12.90;99.90
24800;DHT22;12897;50.812;4.430;2023-01-05T15:41:25;13.10;99.90
24800;DHT22;12897;50.812;4.430;2023-01-05T15:43:55;13.10;99.90
24800;DHT22;12897;50.812;4.430;2023-01-05T15:46:26;13.10;99.90
24800;DHT22;12897;50.812;4.430;2023-01-05T15:48:54;13.10;99.90
24800;DHT22;12897;50.812;4.430;2023-01-05T15:51:28;13.00;99.90
24800;DHT22;12897;50.812;4.430;2023-01-05T15:54:00;13.10;99.90
24800;DHT22;12897;50.812;4.430;2023-01-05T15:56:35;13.00;99.90
24800;DHT22;12897;50.812;4.430;2023-01-05T15:59:20;13.10;99.90
24800;DHT22;12897;50.812;4.430;2023-01-05T16:01:48;13.20;99.90
24800;DHT22;12897;50.812;4.430;2023-01-05T16:04:15;13.10;99.90
24800;DHT22;12897;50.812;4.430;2023-01-05T16:06:48;12.90;99.90
24800;DHT22;12897;50.812;4.430;2023-01-05T16:09:25;13.00;99.90
24800;DHT22;12897;50.812;4.430;2023-01-05T16:11:59;13.00;99.90
24800;DHT22;12897;50.812;4.430;2023-01-05T16:14:33;13.00;99.90
24800;DHT22;12897;50.812;4.430;2023-01-05T16:17:03;12.90;99.90
24800;DHT22;12897;50.812;4.430;2023-01-05T16:19:40;13.00;99.90
24800;DHT22;12897;50.812;4.430;2023-01-05T16:22:34;12.90;99.90
24800;DHT22;12897;50.812;4.430;2023-01-05T16:25:20;12.80;99.90
24800;DHT22;12897;50.812;4.430;2023-01-05T16:27:50;12.90;99.90
24800;DHT22;12897;50.812;4.430;2023-01-05T16:30:30;12.70;99.90
24800;DHT22;12897;50.812;4.430;2023-01-05T16:35:42;13.00;99.90
24800;DHT22;12897;50.812;4.430;2023-01-05T16:38:13;12.80;99.90
24800;DHT22;12897;50.812;4.430;2023-01-05T16:45:53;12.60;99.90
24800;DHT22;12897;50.812;4.430;2023-01-05T16:51:07;12.80;99.90
24800;DHT22;12897;50.812;4.430;2023-01-05T16:53:38;12.80;99.90
24800;DHT22;12897;50.812;4.430;2023-01-05T16:56:16;12.80;99.90
24800;DHT22;12897;50.812;4.430;2023-01-05T16:58:36;12.90;99.90
24800;DHT22;12897;50.812;4.430;2023-01-05T17:01:16;12.80;99.90
24800;DHT22;12897;50.812;4.430;2023-01-05T17:03:46;12.90;99.90
24800;DHT22;12897;50.812;4.430;2023-01-05T17:06:21;12.90;99.90
24800;DHT22;12897;50.812;4.430;2023-01-05T17:08:51;12.80;99.90
24800;DHT22;12897;50.812;4.430;2023-01-05T17:11:19;12.80;99.90
24800;DHT22;12897;50.812;4.430;2023-01-05T17:13:54;12.80;99.90
24800;DHT22;12897;50.812;4.430;2023-01-05T17:16:22;12.80;99.90
24800;DHT22;12897;50.812;4.430;2023-01-05T17:18:51;12.80;99.90
24800;DHT22;12897;50.812;4.430;2023-01-05T17:21:27;12.80;99.90
24800;DHT22;12897;50.812;4.430;2023-01-05T17:23:54;12.80;99.90
24800;DHT22;12897;50.812;4.430;2023-01-05T17:26:28;12.80;99.90
24800;DHT22;12897;50.812;4.430;2023-01-05T17:28:58;12.80;99.90
24800;DHT22;12897;50.812;4.430;2023-01-05T17:31:25;12.80;99.90
24800;DHT22;12897;50.812;4.430;2023-01-05T17:33:54;12.80;99.90
24800;DHT22;12897;50.812;4.430;2023-01-05T17:36:30;12.80;99.90
24800;DHT22;12897;50.812;4.430;2023-01-05T17:39:00;12.70;99.90
24800;DHT22;12897;50.812;4.430;2023-01-05T17:41:29;12.80;99.90
24800;DHT22;12897;50.812;4.430;2023-01-05T17:43:57;12.70;99.90
24800;DHT22;12897;50.812;4.430;2023-01-05T17:46:28;12.80;99.90
24800;DHT22;12897;50.812;4.430;2023-01-05T17:48:57;12.70;99.90
24800;DHT22;12897;50.812;4.430;2023-01-05T17:51:28;12.70;99.90
24800;DHT22;12897;50.812;4.430;2023-01-05T17:53:56;12.70;99.90
24800;DHT22;12897;50.812;4.430;2023-01-05T17:56:24;12.70;99.90
24800;DHT22;12897;50.812;4.430;2023-01-05T17:58:52;12.70;99.90
24800;DHT22;12897;50.812;4.430;2023-01-05T18:01:20;12.70;99.90
24800;DHT22;12897;50.812;4.430;2023-01-05T18:03:49;12.60;99.90
24800;DHT22;12897;50.812;4.430;2023-01-05T18:06:17;12.70;99.90
24800;DHT22;12897;50.812;4.430;2023-01-05T18:08:44;12.70;99.90
24800;DHT22;12897;50.812;4.430;2023-01-05T18:11:13;12.60;99.90
24800;DHT22;12897;50.812;4.430;2023-01-05T18:13:41;12.60;99.90
24800;DHT22;12897;50.812;4.430;2023-01-05T18:16:10;12.60;99.90
24800;DHT22;12897;50.812;4.430;2023-01-05T18:18:39;12.60;99.90
24800;DHT22;12897;50.812;4.430;2023-01-05T18:21:07;12.60;99.90